createdAt,value
2023-05-06T00:01:10.658Z,28.15
2023-05-06T00:03:37.681Z,26.67
2023-05-06T00:06:07.021Z,23.15
2023-05-06T00:08:33.755Z,27.45
2023-05-06T00:11:00.777Z,29.33
2023-05-06T00:13:27.609Z,26.75
2023-05-06T00:15:54.416Z,34.05
2023-05-06T00:18:22.809Z,26.65
2023-05-06T00:20:49.727Z,28.20
2023-05-06T00:23:16.433Z,27.48
2023-05-06T00:25:43.224Z,30.60
2023-05-06T00:28:09.949Z,32.58
2023-05-06T00:30:36.747Z,28.95
2023-05-06T00:33:03.520Z,31.88
2023-05-06T00:35:30.750Z,29.50
2023-05-06T00:38:19.514Z,30.80
2023-05-06T00:40:46.308Z,33.17
2023-05-06T00:43:13.592Z,34.75
2023-05-06T00:45:40.539Z,30.00
2023-05-06T00:48:08.041Z,29.13
2023-05-06T00:50:35.754Z,28.45
2023-05-06T00:53:04.578Z,30.55
2023-05-06T00:55:32.759Z,31.75
2023-05-06T00:57:59.598Z,29.67
2023-05-06T01:00:26.695Z,30.67
2023-05-06T01:02:53.540Z,28.92
2023-05-06T01:05:26.021Z,30.90
2023-05-06T01:08:16.588Z,32.40
2023-05-06T01:10:53.553Z,28.95
2023-05-06T01:13:45.349Z,30.83
2023-05-06T01:16:14.571Z,31.27
2023-05-06T01:18:42.960Z,30.73
2023-05-06T01:21:12.563Z,29.90
2023-05-06T01:23:52.427Z,35.50
2023-05-06T01:26:19.243Z,36.03
2023-05-06T01:28:46.072Z,30.55
2023-05-06T01:31:17.370Z,30.80
2023-05-06T01:34:00.793Z,30.23
2023-05-06T01:36:29.616Z,25.83
2023-05-06T01:39:05.472Z,27.88
2023-05-06T01:41:34.632Z,32.15
2023-05-06T01:44:01.934Z,30.77
2023-05-06T01:46:30.092Z,23.67
2023-05-06T01:49:01.243Z,15.63
2023-05-06T01:51:28.131Z,19.20
2023-05-06T01:53:54.845Z,21.08
2023-05-06T01:56:21.877Z,18.52
2023-05-06T01:58:48.644Z,19.50
2023-05-06T02:01:15.405Z,25.63
2023-05-06T02:03:42.286Z,16.60
2023-05-06T02:06:09.064Z,19.15
2023-05-06T02:08:35.893Z,17.52
2023-05-06T02:11:02.617Z,23.45
2023-05-06T02:13:29.345Z,25.35
2023-05-06T02:15:56.437Z,24.25
2023-05-06T02:18:23.239Z,27.23
2023-05-06T02:20:49.999Z,20.85
2023-05-06T02:23:16.946Z,23.13
2023-05-06T02:25:43.906Z,27.15
2023-05-06T02:28:10.597Z,28.20
2023-05-06T02:30:37.322Z,28.13
2023-05-06T02:33:04.219Z,27.80
2023-05-06T02:35:31.056Z,26.65
2023-05-06T02:37:57.793Z,24.77
2023-05-06T02:40:24.494Z,23.02
2023-05-06T02:42:51.248Z,20.95
2023-05-06T02:45:18.122Z,23.00
2023-05-06T02:47:44.941Z,22.20
2023-05-06T02:50:11.683Z,20.65
2023-05-06T02:52:38.656Z,25.08
2023-05-06T02:55:06.451Z,25.40
2023-05-06T02:57:33.457Z,29.45
2023-05-06T03:00:00.233Z,29.70
2023-05-06T03:02:26.990Z,31.35
2023-05-06T03:04:53.775Z,28.80
2023-05-06T03:07:20.596Z,32.72
2023-05-06T03:09:47.340Z,28.08
2023-05-06T03:12:15.161Z,25.50
2023-05-06T03:14:41.948Z,22.50
2023-05-06T03:17:08.842Z,24.05
2023-05-06T03:19:35.586Z,24.92
2023-05-06T03:22:02.319Z,27.13
2023-05-06T03:24:29.032Z,30.17
2023-05-06T03:26:55.872Z,24.83
2023-05-06T03:29:22.541Z,23.30
2023-05-06T03:31:51.087Z,30.33
2023-05-06T03:34:17.937Z,28.20
2023-05-06T03:36:45.369Z,24.42
2023-05-06T03:39:12.152Z,24.50
2023-05-06T03:41:38.979Z,24.60
2023-05-06T03:44:05.723Z,30.63
2023-05-06T03:46:32.813Z,26.35
2023-05-06T03:49:00.658Z,29.25
2023-05-06T03:51:27.603Z,27.17
2023-05-06T03:53:55.024Z,29.80
2023-05-06T03:56:22.964Z,30.23
2023-05-06T03:58:49.692Z,30.27
2023-05-06T04:01:18.123Z,32.97
2023-05-06T04:03:45.038Z,33.05
2023-05-06T04:06:11.962Z,32.90
2023-05-06T04:08:38.958Z,32.97
2023-05-06T04:11:06.905Z,32.28
2023-05-06T04:13:34.791Z,24.45
2023-05-06T04:16:01.744Z,20.95
2023-05-06T04:18:28.635Z,20.27
2023-05-06T04:20:55.402Z,21.55
2023-05-06T04:23:22.195Z,22.15
2023-05-06T04:25:48.943Z,25.02
2023-05-06T04:28:16.927Z,20.00
2023-05-06T04:30:47.248Z,19.40
2023-05-06T04:33:14.100Z,20.05
2023-05-06T04:35:41.151Z,22.85
2023-05-06T04:38:07.847Z,23.67
2023-05-06T04:40:36.494Z,20.30
2023-05-06T04:43:03.222Z,19.77
2023-05-06T04:45:30.354Z,24.02
2023-05-06T04:47:57.155Z,20.38
2023-05-06T04:50:23.956Z,17.60
2023-05-06T04:52:50.624Z,18.40
2023-05-06T04:55:17.423Z,21.35
2023-05-06T04:57:44.227Z,22.08
2023-05-06T05:00:11.490Z,22.35
2023-05-06T05:02:38.424Z,22.02
2023-05-06T05:05:05.560Z,27.05
2023-05-06T05:07:32.340Z,23.63
2023-05-06T05:09:59.071Z,21.48
2023-05-06T05:12:25.862Z,26.38
2023-05-06T05:14:52.554Z,24.50
2023-05-06T05:17:19.360Z,26.95
2023-05-06T05:19:46.181Z,27.27
2023-05-06T05:22:12.939Z,24.65
2023-05-06T05:24:39.696Z,23.42
2023-05-06T05:27:06.448Z,25.30
2023-05-06T05:29:33.220Z,25.73
2023-05-06T05:31:59.945Z,27.45
2023-05-06T05:34:26.660Z,30.33
2023-05-06T05:36:53.470Z,28.20
2023-05-06T05:39:20.370Z,30.85
2023-05-06T05:41:47.299Z,29.88
2023-05-06T05:44:14.025Z,33.58
2023-05-06T05:46:41.549Z,33.95
2023-05-06T05:49:08.410Z,30.80
2023-05-06T05:51:35.308Z,33.80
2023-05-06T05:54:02.047Z,33.38
2023-05-06T05:56:28.764Z,34.35
2023-05-06T05:58:55.492Z,33.78
2023-05-06T06:01:22.249Z,38.15
2023-05-06T06:03:49.178Z,42.45
2023-05-06T06:06:16.241Z,34.10
2023-05-06T06:08:42.934Z,35.30
2023-05-06T06:11:09.734Z,39.67
2023-05-06T06:13:36.611Z,39.72
2023-05-06T06:16:04.207Z,39.63
2023-05-06T06:18:31.355Z,42.00
2023-05-06T06:20:58.394Z,40.47
2023-05-06T06:23:25.234Z,42.08
2023-05-06T06:25:51.925Z,36.75
2023-05-06T06:28:18.706Z,37.50
2023-05-06T06:30:45.421Z,37.33
2023-05-06T06:33:12.137Z,39.78
2023-05-06T06:35:38.886Z,37.42
2023-05-06T06:38:05.617Z,39.13
2023-05-06T06:40:32.386Z,40.13
2023-05-06T06:42:59.109Z,43.53
2023-05-06T06:45:25.891Z,38.60
2023-05-06T06:47:52.648Z,43.55
2023-05-06T06:50:19.511Z,38.95
2023-05-06T06:52:46.399Z,45.60
2023-05-06T06:55:13.308Z,52.88
2023-05-06T06:57:40.980Z,56.42
2023-05-06T07:00:08.219Z,56.38
2023-05-06T07:02:34.930Z,53.22
2023-05-06T07:05:02.698Z,48.80
2023-05-06T07:07:29.422Z,42.55
2023-05-06T07:09:57.588Z,45.22
2023-05-06T07:12:26.675Z,34.60
2023-05-06T07:14:53.456Z,38.22
2023-05-06T07:17:20.287Z,32.72
2023-05-06T07:19:47.074Z,32.20
2023-05-06T07:22:13.969Z,27.27
2023-05-06T07:24:41.289Z,33.35
2023-05-06T07:27:08.107Z,34.28
2023-05-06T07:29:36.633Z,31.65
2023-05-06T07:32:03.909Z,28.83
2023-05-06T07:34:30.807Z,27.85
2023-05-06T07:36:57.528Z,26.50
2023-05-06T07:39:24.203Z,26.90
2023-05-06T07:41:51.569Z,29.50
2023-05-06T07:44:18.376Z,32.58
2023-05-06T07:46:45.188Z,31.25
2023-05-06T07:49:11.980Z,28.30
2023-05-06T07:51:38.703Z,22.58
2023-05-06T07:54:05.474Z,25.05
2023-05-06T07:56:32.235Z,21.23
2023-05-06T07:58:59.933Z,20.60
2023-05-06T08:01:29.040Z,20.63
2023-05-06T08:03:55.924Z,21.02
2023-05-06T08:06:22.748Z,18.65
2023-05-06T08:08:49.536Z,25.13
2023-05-06T08:11:18.118Z,27.55
2023-05-06T08:13:47.183Z,40.72
2023-05-06T08:16:13.977Z,35.67
2023-05-06T08:18:40.929Z,35.50
2023-05-06T08:21:07.635Z,33.50
2023-05-06T08:23:34.480Z,36.50
2023-05-06T08:26:01.957Z,30.35
2023-05-06T08:28:29.337Z,35.40
2023-05-06T08:30:56.031Z,31.50
2023-05-06T08:33:22.752Z,31.77
2023-05-06T08:35:50.792Z,33.20
2023-05-06T08:38:17.830Z,35.05
2023-05-06T08:40:44.975Z,30.23
2023-05-06T08:43:14.704Z,33.88
2023-05-06T08:45:42.404Z,27.02
2023-05-06T08:48:09.607Z,29.75
2023-05-06T08:50:42.084Z,28.13
2023-05-06T08:53:15.859Z,22.95
2023-05-06T08:55:43.497Z,21.58
2023-05-06T08:58:13.441Z,20.75
2023-05-06T09:00:40.300Z,19.27
2023-05-06T09:03:07.356Z,18.30
2023-05-06T09:05:34.223Z,24.23
2023-05-06T09:08:00.992Z,21.58
2023-05-06T09:10:33.104Z,24.05
2023-05-06T09:13:00.015Z,18.10
2023-05-06T09:15:27.157Z,15.50
2023-05-06T09:17:55.329Z,17.33
2023-05-06T09:20:22.243Z,16.40
2023-05-06T09:22:49.198Z,17.50
2023-05-06T09:25:16.142Z,14.95
2023-05-06T09:27:42.911Z,20.92
2023-05-06T09:30:13.345Z,17.85
2023-05-06T09:32:40.876Z,20.33
2023-05-06T09:35:09.263Z,18.42
2023-05-06T09:37:36.312Z,17.35
2023-05-06T09:40:03.265Z,17.98
2023-05-06T09:42:30.527Z,16.85
2023-05-06T09:45:01.559Z,18.95
2023-05-06T09:47:34.426Z,19.02
2023-05-06T09:50:02.837Z,18.08
2023-05-06T09:52:31.130Z,18.42
2023-05-06T09:54:58.498Z,18.05
2023-05-06T09:57:26.748Z,16.98
2023-05-06T09:59:55.545Z,17.27
2023-05-06T10:02:23.860Z,16.30
2023-05-06T10:04:53.687Z,16.30
2023-05-06T10:07:25.575Z,15.02
2023-05-06T10:09:53.939Z,17.05
2023-05-06T10:12:20.869Z,17.88
2023-05-06T10:14:47.775Z,16.83
2023-05-06T10:17:14.795Z,15.45
2023-05-06T10:19:45.262Z,14.07
2023-05-06T10:22:36.900Z,16.97
2023-05-06T10:25:19.364Z,16.52
2023-05-06T10:27:49.636Z,13.95
2023-05-06T10:30:17.177Z,16.17
2023-05-06T10:32:45.370Z,12.02
2023-05-06T10:35:49.198Z,11.85
2023-05-06T10:38:23.317Z,11.13
2023-05-06T10:40:51.213Z,13.13
2023-05-06T10:43:34.006Z,10.93
2023-05-06T10:46:07.033Z,8.52
2023-05-06T10:48:34.030Z,10.18
2023-05-06T10:51:19.691Z,8.82
2023-05-06T10:54:08.999Z,7.88
2023-05-06T10:56:51.028Z,7.32
2023-05-06T10:59:24.270Z,10.77
2023-05-06T11:02:03.342Z,8.82
2023-05-06T11:04:31.310Z,7.10
2023-05-06T11:07:11.850Z,8.80
2023-05-06T11:10:08.147Z,8.87
2023-05-06T11:12:48.889Z,10.57
2023-05-06T11:15:28.956Z,7.38
2023-05-06T11:17:56.869Z,9.25
2023-05-06T11:20:25.612Z,8.73
2023-05-06T11:22:53.373Z,8.77
2023-05-06T11:25:40.323Z,8.55
2023-05-06T11:28:11.823Z,9.93
2023-05-06T11:30:41.928Z,9.85
2023-05-06T11:33:13.943Z,11.32
2023-05-06T11:35:41.611Z,8.15
2023-05-06T11:38:08.461Z,12.77
2023-05-06T11:40:35.425Z,11.07
2023-05-06T11:43:15.804Z,13.35
2023-05-06T11:45:46.550Z,12.80
2023-05-06T11:48:17.753Z,10.52
2023-05-06T11:50:48.837Z,13.00
2023-05-06T11:53:21.053Z,11.70
2023-05-06T11:55:49.075Z,15.25
2023-05-06T11:58:17.672Z,11.90
2023-05-06T12:01:04.180Z,11.38
2023-05-06T12:03:32.835Z,11.57
2023-05-06T12:06:00.437Z,14.30
2023-05-06T12:08:32.546Z,10.77
2023-05-06T12:11:08.063Z,13.38
2023-05-06T12:13:40.617Z,14.98
2023-05-06T12:16:08.500Z,15.82
2023-05-06T12:18:35.835Z,10.95
2023-05-06T12:21:03.009Z,12.25
2023-05-06T12:23:29.899Z,11.65
2023-05-06T12:26:02.911Z,12.50
2023-05-06T12:28:31.300Z,9.23
2023-05-06T12:30:58.095Z,11.05
2023-05-06T12:33:25.284Z,10.50
2023-05-06T12:35:52.753Z,9.20
2023-05-06T12:38:19.556Z,9.07
2023-05-06T12:40:54.529Z,8.82
2023-05-06T12:43:30.248Z,8.27
2023-05-06T12:46:08.017Z,7.00
2023-05-06T12:48:35.530Z,8.05
2023-05-06T12:51:18.709Z,7.45
2023-05-06T12:53:45.504Z,9.40
2023-05-06T12:56:12.226Z,10.80
2023-05-06T12:58:39.759Z,14.13
2023-05-06T13:01:09.348Z,11.52
2023-05-06T13:03:38.611Z,10.80
2023-05-06T13:06:05.850Z,12.52
2023-05-06T13:08:32.680Z,10.18
2023-05-06T13:11:01.636Z,15.75
2023-05-06T13:13:28.724Z,8.57
2023-05-06T13:15:56.440Z,9.13
2023-05-06T13:18:23.343Z,8.38
2023-05-06T13:20:51.605Z,7.07
2023-05-06T13:23:19.365Z,7.50
2023-05-06T13:26:02.679Z,6.97
2023-05-06T13:28:32.256Z,7.88
2023-05-06T13:30:59.091Z,10.00
2023-05-06T13:33:25.893Z,8.88
2023-05-06T13:35:52.626Z,8.02
2023-05-06T13:38:19.375Z,9.15
2023-05-06T13:40:48.732Z,9.02
2023-05-06T13:43:15.636Z,8.10
2023-05-06T13:45:44.757Z,8.00
2023-05-06T13:48:15.332Z,9.50
2023-05-06T13:50:46.657Z,10.32
2023-05-06T13:53:14.538Z,7.53
2023-05-06T13:55:42.779Z,9.32
2023-05-06T13:58:09.742Z,9.30
2023-05-06T14:00:36.446Z,6.63
2023-05-06T14:03:03.771Z,8.38
2023-05-06T14:05:30.768Z,5.03
2023-05-06T14:07:57.509Z,7.88
2023-05-06T14:10:24.394Z,8.70
2023-05-06T14:12:51.369Z,10.55
2023-05-06T14:15:18.288Z,10.55
2023-05-06T14:17:45.123Z,15.18
2023-05-06T14:20:12.024Z,15.10
2023-05-06T14:22:41.238Z,13.63
2023-05-06T14:25:09.115Z,13.35
2023-05-06T14:27:36.626Z,12.05
2023-05-06T14:30:08.160Z,10.32
2023-05-06T14:32:36.062Z,12.25
2023-05-06T14:35:02.982Z,14.63
2023-05-06T14:37:29.816Z,14.00
2023-05-06T14:39:57.500Z,14.38
2023-05-06T14:42:24.322Z,12.82
2023-05-06T14:44:51.066Z,14.55
2023-05-06T14:47:18.051Z,13.30
2023-05-06T14:49:44.848Z,13.20
2023-05-06T14:52:11.607Z,13.48
2023-05-06T14:54:42.370Z,13.27
2023-05-06T14:57:10.420Z,14.23
2023-05-06T14:59:38.069Z,14.27
2023-05-06T15:02:07.194Z,16.15
2023-05-06T15:04:34.035Z,14.52
2023-05-06T15:07:00.825Z,13.43
2023-05-06T15:09:27.593Z,15.35
2023-05-06T15:11:54.566Z,12.20
2023-05-06T15:14:21.318Z,12.27
2023-05-06T15:16:48.074Z,11.73
2023-05-06T15:19:14.976Z,9.30
2023-05-06T15:21:41.677Z,10.98
2023-05-06T15:24:08.882Z,8.13
2023-05-06T15:26:35.787Z,9.50
2023-05-06T15:29:02.537Z,7.53
2023-05-06T15:31:32.140Z,7.95
2023-05-06T15:34:00.496Z,9.07
2023-05-06T15:36:27.707Z,8.18
2023-05-06T15:39:00.707Z,6.95
2023-05-06T15:41:30.397Z,8.13
2023-05-06T15:43:58.421Z,6.47
2023-05-06T15:46:26.412Z,7.80
2023-05-06T15:49:12.379Z,7.97
2023-05-06T15:51:40.058Z,8.15
2023-05-06T15:54:06.992Z,5.70
2023-05-06T15:56:39.310Z,7.45
2023-05-06T15:59:08.372Z,7.95
2023-05-06T16:02:16.661Z,7.07
2023-05-06T16:04:22.987Z,6.93
2023-05-06T16:06:49.975Z,7.57
2023-05-06T16:09:16.854Z,8.23
2023-05-06T16:11:43.675Z,8.25
2023-05-06T16:14:10.486Z,9.20
2023-05-06T16:16:37.377Z,8.20
2023-05-06T16:19:04.494Z,7.88
2023-05-06T16:21:31.822Z,9.95
2023-05-06T16:23:58.714Z,9.98
2023-05-06T16:26:25.566Z,9.40
2023-05-06T16:28:53.720Z,10.77
2023-05-06T16:31:20.829Z,12.98
2023-05-06T16:33:47.675Z,11.95
2023-05-06T16:36:14.439Z,12.35
2023-05-06T16:38:41.159Z,16.17
2023-05-06T16:41:08.020Z,14.52
2023-05-06T16:43:34.815Z,19.55
2023-05-06T16:46:01.557Z,21.60
2023-05-06T16:48:28.816Z,19.60
2023-05-06T16:50:55.655Z,20.58
2023-05-06T16:53:22.493Z,22.50
2023-05-06T16:55:50.036Z,19.92
2023-05-06T16:58:16.881Z,17.63
2023-05-06T17:00:44.081Z,18.45
2023-05-06T17:03:11.686Z,17.40
2023-05-06T17:05:38.724Z,15.93
2023-05-06T17:08:05.760Z,13.77
2023-05-06T17:10:32.520Z,11.73
2023-05-06T17:12:59.560Z,13.23
2023-05-06T17:15:26.484Z,15.50
2023-05-06T17:17:53.338Z,11.10
2023-05-06T17:20:20.395Z,9.98
2023-05-06T17:22:47.157Z,10.80
2023-05-06T17:25:14.166Z,10.30
2023-05-06T17:27:41.131Z,11.48
2023-05-06T17:30:11.712Z,12.68
2023-05-06T17:32:39.014Z,13.82
2023-05-06T17:35:06.684Z,19.30
2023-05-06T17:37:34.428Z,19.77
2023-05-06T17:40:01.990Z,17.60
2023-05-06T17:42:29.215Z,22.92
2023-05-06T17:44:56.050Z,23.90
2023-05-06T17:47:22.894Z,23.35
2023-05-06T17:49:53.710Z,16.40
2023-05-06T17:52:20.825Z,20.17
2023-05-06T17:55:01.527Z,19.25
2023-05-06T17:57:37.333Z,18.02
2023-05-06T18:00:04.520Z,17.02
2023-05-06T18:02:31.470Z,18.35
2023-05-06T18:04:58.276Z,21.40
2023-05-06T18:07:25.046Z,19.95
2023-05-06T18:09:52.187Z,18.00
2023-05-06T18:12:20.073Z,20.38
2023-05-06T18:14:47.974Z,18.33
2023-05-06T18:17:14.730Z,18.95
2023-05-06T18:19:41.421Z,18.13
2023-05-06T18:22:08.213Z,17.55
2023-05-06T18:24:34.976Z,17.60
2023-05-06T18:27:02.296Z,17.13
2023-05-06T18:29:30.329Z,15.90
2023-05-06T18:31:57.452Z,15.00
2023-05-06T18:34:24.263Z,15.48
2023-05-06T18:36:51.743Z,14.90
2023-05-06T18:39:18.496Z,16.13
2023-05-06T18:41:45.275Z,14.20
2023-05-06T18:44:12.026Z,15.95
2023-05-06T18:46:39.619Z,17.13
2023-05-06T18:49:07.978Z,14.63
2023-05-06T18:51:34.735Z,15.20
2023-05-06T18:54:02.328Z,16.73
2023-05-06T18:56:29.153Z,17.10
2023-05-06T18:58:55.941Z,18.98
2023-05-06T19:01:22.918Z,19.58
2023-05-06T19:03:49.761Z,18.52
2023-05-06T19:06:16.724Z,16.33
2023-05-06T19:08:43.606Z,18.42
2023-05-06T19:11:19.121Z,17.25
2023-05-06T19:13:46.295Z,17.58
2023-05-06T19:16:13.929Z,20.20
2023-05-06T19:18:40.937Z,19.15
2023-05-06T19:21:11.776Z,18.92
2023-05-06T19:23:38.621Z,18.08
2023-05-06T19:26:06.775Z,20.35
2023-05-06T19:28:34.295Z,22.65
2023-05-06T19:31:01.558Z,23.25
2023-05-06T19:33:28.508Z,25.65
2023-05-06T19:35:55.277Z,27.52
2023-05-06T19:38:22.845Z,30.60
2023-05-06T19:40:49.630Z,35.20
2023-05-06T19:43:16.637Z,39.22
2023-05-06T19:45:43.424Z,42.60
2023-05-06T19:48:10.131Z,47.40
2023-05-06T19:50:37.227Z,51.50
2023-05-06T19:53:04.148Z,50.67
2023-05-06T19:55:31.668Z,47.65
2023-05-06T19:57:59.176Z,50.00
2023-05-06T20:00:28.160Z,54.92
2023-05-06T20:02:58.509Z,56.10
2023-05-06T20:05:30.796Z,52.33
2023-05-06T20:08:01.155Z,50.80
2023-05-06T20:10:28.698Z,52.17
2023-05-06T20:12:57.648Z,52.83
2023-05-06T20:15:26.550Z,53.58
2023-05-06T20:17:53.391Z,51.20
2023-05-06T20:20:20.428Z,54.42
2023-05-06T20:22:47.386Z,52.55
2023-05-06T20:25:16.261Z,51.92
2023-05-06T20:27:44.027Z,48.88
2023-05-06T20:30:11.067Z,50.22
2023-05-06T20:32:39.473Z,49.38
2023-05-06T20:35:07.082Z,48.90
2023-05-06T20:37:35.364Z,51.13
2023-05-06T20:40:04.760Z,49.47
2023-05-06T20:42:31.897Z,47.42
2023-05-06T20:45:00.129Z,50.60
2023-05-06T20:47:27.219Z,50.33
2023-05-06T20:49:54.352Z,48.00
2023-05-06T20:52:21.804Z,53.88
2023-05-06T20:54:48.991Z,49.80
2023-05-06T20:57:17.914Z,50.20
2023-05-06T20:59:44.683Z,58.08
2023-05-06T21:02:11.575Z,48.72
2023-05-06T21:04:38.492Z,49.50
2023-05-06T21:07:05.521Z,51.78
2023-05-06T21:09:32.364Z,51.78
2023-05-06T21:11:59.443Z,49.25
2023-05-06T21:14:27.036Z,50.75
2023-05-06T21:16:54.170Z,49.80
2023-05-06T21:19:20.973Z,50.50
2023-05-06T21:21:48.317Z,45.95
2023-05-06T21:24:15.148Z,49.65
2023-05-06T21:26:41.881Z,45.70
2023-05-06T21:29:08.766Z,44.03
2023-05-06T21:31:35.623Z,41.55
2023-05-06T21:34:04.069Z,42.45
2023-05-06T21:36:31.228Z,43.42
2023-05-06T21:39:12.124Z,37.53
2023-05-06T21:41:40.249Z,43.67
2023-05-06T21:44:08.357Z,42.35
2023-05-06T21:46:36.689Z,43.33
2023-05-06T21:49:03.746Z,40.92
2023-05-06T21:51:32.920Z,37.38
2023-05-06T21:53:59.661Z,40.22
2023-05-06T21:56:26.611Z,41.60
2023-05-06T21:58:55.690Z,37.88
2023-05-06T22:01:26.073Z,38.63
2023-05-06T22:03:54.057Z,42.23
2023-05-06T22:06:21.284Z,38.60
2023-05-06T22:08:48.177Z,36.85
2023-05-06T22:11:15.190Z,36.92
2023-05-06T22:13:41.862Z,38.35
2023-05-06T22:16:08.672Z,39.08
2023-05-06T22:18:35.981Z,43.40
2023-05-06T22:21:03.295Z,39.83
2023-05-06T22:23:30.072Z,42.75
2023-05-06T22:25:58.500Z,42.55
2023-05-06T22:28:25.966Z,41.75
2023-05-06T22:30:52.661Z,46.53
2023-05-06T22:33:19.455Z,44.03
2023-05-06T22:35:46.128Z,46.28
2023-05-06T22:38:14.217Z,41.63
2023-05-06T22:40:40.939Z,43.00
2023-05-06T22:43:07.790Z,43.80
2023-05-06T22:45:34.615Z,46.45
2023-05-06T22:48:01.335Z,45.20
2023-05-06T22:50:28.130Z,43.63
2023-05-06T22:52:54.855Z,50.03
2023-05-06T22:55:21.699Z,45.67
2023-05-06T22:57:50.109Z,42.95
2023-05-06T23:00:20.097Z,49.25
2023-05-06T23:02:47.058Z,51.80
2023-05-06T23:05:14.016Z,47.72
2023-05-06T23:07:40.891Z,48.55
2023-05-06T23:10:08.358Z,49.38
2023-05-06T23:12:35.534Z,47.22
2023-05-06T23:15:02.873Z,45.00
2023-05-06T23:17:29.749Z,45.60
2023-05-06T23:19:58.917Z,51.00
2023-05-06T23:22:26.680Z,44.90
2023-05-06T23:24:53.686Z,42.72
2023-05-06T23:27:20.542Z,42.53
2023-05-06T23:29:47.315Z,48.50
2023-05-06T23:32:14.053Z,45.17
2023-05-06T23:34:40.743Z,45.00
2023-05-06T23:37:07.469Z,40.92
2023-05-06T23:39:34.168Z,45.30
2023-05-06T23:42:02.158Z,43.80
2023-05-06T23:44:29.108Z,44.33
2023-05-06T23:46:56.042Z,44.53
2023-05-06T23:49:23.021Z,46.33
2023-05-06T23:51:49.715Z,41.05
2023-05-06T23:54:16.450Z,41.03
2023-05-06T23:56:43.230Z,41.65
2023-05-06T23:59:09.995Z,45.97
